sensor_id;sensor_type;location;lat;lon;timestamp;temperature;humidity
67165;SHT31;54093;50.014;19.984;2024-03-02T00:02:08;6.91;82.34
67165;SHT31;54093;50.014;19.984;2024-03-02T00:11:29;6.79;80.72
67165;SHT31;54093;50.014;19.984;2024-03-02T00:20:53;6.71;81.69
67165;SHT31;54093;50.014;19.984;2024-03-02T00:39:56;6.64;82.54
67165;SHT31;54093;50.014;19.984;2024-03-02T00:58:41;6.23;82.94
67165;SHT31;54093;50.014;19.984;2024-03-02T01:08:02;6.44;82.93
67165;SHT31;54093;50.014;19.984;2024-03-02T01:17:23;6.35;82.16
67165;SHT31;54093;50.014;19.984;2024-03-02T01:26:44;6.31;81.48
67165;SHT31;54093;50.014;19.984;2024-03-02T01:36:05;6.23;83.27
67165;SHT31;54093;50.014;19.984;2024-03-02T01:45:29;6.30;83.16
67165;SHT31;54093;50.014;19.984;2024-03-02T01:54:50;6.41;83.20
67165;SHT31;54093;50.014;19.984;2024-03-02T02:04:11;6.34;82.94
67165;SHT31;54093;50.014;19.984;2024-03-02T02:13:32;6.37;83.41
67165;SHT31;54093;50.014;19.984;2024-03-02T02:23:03;6.38;82.51
67165;SHT31;54093;50.014;19.984;2024-03-02T02:32:25;6.14;83.22
67165;SHT31;54093;50.014;19.984;2024-03-02T02:41:46;6.10;83.06
67165;SHT31;54093;50.014;19.984;2024-03-02T02:51:07;6.09;82.33
67165;SHT31;54093;50.014;19.984;2024-03-02T03:00:28;6.03;83.05
67165;SHT31;54093;50.014;19.984;2024-03-02T03:09:49;6.04;82.37
67165;SHT31;54093;50.014;19.984;2024-03-02T03:19:10;5.97;83.53
67165;SHT31;54093;50.014;19.984;2024-03-02T03:28:31;6.02;83.78
67165;SHT31;54093;50.014;19.984;2024-03-02T03:37:52;6.00;82.72
67165;SHT31;54093;50.014;19.984;2024-03-02T03:47:13;5.95;83.47
67165;SHT31;54093;50.014;19.984;2024-03-02T03:56:34;5.90;82.97
67165;SHT31;54093;50.014;19.984;2024-03-02T04:05:55;5.77;83.18
67165;SHT31;54093;50.014;19.984;2024-03-02T04:15:16;5.90;83.29
67165;SHT31;54093;50.014;19.984;2024-03-02T04:24:39;5.92;83.40
67165;SHT31;54093;50.014;19.984;2024-03-02T04:34:00;5.90;83.32
67165;SHT31;54093;50.014;19.984;2024-03-02T04:43:21;5.83;83.52
67165;SHT31;54093;50.014;19.984;2024-03-02T04:52:42;5.83;83.84
67165;SHT31;54093;50.014;19.984;2024-03-02T05:02:03;5.89;83.40
67165;SHT31;54093;50.014;19.984;2024-03-02T05:11:24;5.76;83.57
67165;SHT31;54093;50.014;19.984;2024-03-02T05:20:57;5.76;84.05
67165;SHT31;54093;50.014;19.984;2024-03-02T05:30:19;5.72;82.98
67165;SHT31;54093;50.014;19.984;2024-03-02T05:39:40;5.48;84.30
67165;SHT31;54093;50.014;19.984;2024-03-02T05:49:00;5.45;84.53
67165;SHT31;54093;50.014;19.984;2024-03-02T05:58:22;5.54;84.44
67165;SHT31;54093;50.014;19.984;2024-03-02T06:07:58;5.62;84.80
67165;SHT31;54093;50.014;19.984;2024-03-02T06:17:20;5.62;85.02
67165;SHT31;54093;50.014;19.984;2024-03-02T06:26:40;5.59;85.85
67165;SHT31;54093;50.014;19.984;2024-03-02T06:36:02;5.62;86.66
67165;SHT31;54093;50.014;19.984;2024-03-02T06:45:23;5.83;86.47
67165;SHT31;54093;50.014;19.984;2024-03-02T06:54:44;5.90;86.75
67165;SHT31;54093;50.014;19.984;2024-03-02T07:04:06;6.03;86.84
67165;SHT31;54093;50.014;19.984;2024-03-02T07:13:27;6.16;87.06
67165;SHT31;54093;50.014;19.984;2024-03-02T07:22:48;6.28;87.27
67165;SHT31;54093;50.014;19.984;2024-03-02T07:32:10;6.40;87.38
67165;SHT31;54093;50.014;19.984;2024-03-02T07:41:31;6.46;87.66
67165;SHT31;54093;50.014;19.984;2024-03-02T07:50:53;6.65;87.84
67165;SHT31;54093;50.014;19.984;2024-03-02T08:00:14;6.81;87.87
67165;SHT31;54093;50.014;19.984;2024-03-02T08:09:36;7.00;87.88
67165;SHT31;54093;50.014;19.984;2024-03-02T08:18:57;7.06;87.82
67165;SHT31;54093;50.014;19.984;2024-03-02T08:28:18;7.14;87.54
67165;SHT31;54093;50.014;19.984;2024-03-02T08:37:41;7.23;87.32
67165;SHT31;54093;50.014;19.984;2024-03-02T08:47:03;7.30;87.10
67165;SHT31;54093;50.014;19.984;2024-03-02T08:56:24;7.37;86.86
67165;SHT31;54093;50.014;19.984;2024-03-02T09:05:45;7.40;86.74
67165;SHT31;54093;50.014;19.984;2024-03-02T09:15:07;7.51;86.59
67165;SHT31;54093;50.014;19.984;2024-03-02T09:24:28;7.62;86.59
67165;SHT31;54093;50.014;19.984;2024-03-02T09:33:49;7.77;86.54
67165;SHT31;54093;50.014;19.984;2024-03-02T09:43:10;7.83;86.05
67165;SHT31;54093;50.014;19.984;2024-03-02T09:52:32;7.93;85.99
67165;SHT31;54093;50.014;19.984;2024-03-02T10:02:01;8.09;85.87
67165;SHT31;54093;50.014;19.984;2024-03-02T10:20:50;8.41;85.50
67165;SHT31;54093;50.014;19.984;2024-03-02T10:30:11;8.47;85.03
67165;SHT31;54093;50.014;19.984;2024-03-02T10:39:36;8.61;85.29
67165;SHT31;54093;50.014;19.984;2024-03-02T10:48:58;8.87;85.26
67165;SHT31;54093;50.014;19.984;2024-03-02T10:58:20;9.02;83.44
67165;SHT31;54093;50.014;19.984;2024-03-02T11:07:41;9.23;82.96
67165;SHT31;54093;50.014;19.984;2024-03-02T11:17:03;9.54;83.19
67165;SHT31;54093;50.014;19.984;2024-03-02T11:26:24;9.77;82.39
67165;SHT31;54093;50.014;19.984;2024-03-02T11:35:46;9.95;82.32
67165;SHT31;54093;50.014;19.984;2024-03-02T11:45:08;10.06;81.62
67165;SHT31;54093;50.014;19.984;2024-03-02T11:54:32;10.14;80.45
67165;SHT31;54093;50.014;19.984;2024-03-02T12:03:55;10.26;81.27
67165;SHT31;54093;50.014;19.984;2024-03-02T12:13:16;10.39;81.11
67165;SHT31;54093;50.014;19.984;2024-03-02T12:22:37;10.42;80.65
67165;SHT31;54093;50.014;19.984;2024-03-02T12:31:59;10.45;80.40
67165;SHT31;54093;50.014;19.984;2024-03-02T12:41:20;10.66;80.47
67165;SHT31;54093;50.014;19.984;2024-03-02T12:50:42;10.94;79.02
67165;SHT31;54093;50.014;19.984;2024-03-02T13:00:04;11.24;77.73
67165;SHT31;54093;50.014;19.984;2024-03-02T13:09:33;11.48;76.86
67165;SHT31;54093;50.014;19.984;2024-03-02T13:18:55;11.66;76.47
67165;SHT31;54093;50.014;19.984;2024-03-02T13:28:16;11.72;73.55
67165;SHT31;54093;50.014;19.984;2024-03-02T13:37:38;11.76;75.56
67165;SHT31;54093;50.014;19.984;2024-03-02T13:47:00;11.73;74.01
67165;SHT31;54093;50.014;19.984;2024-03-02T13:56:21;11.85;74.91
67165;SHT31;54093;50.014;19.984;2024-03-02T14:05:43;12.01;73.89
67165;SHT31;54093;50.014;19.984;2024-03-02T14:15:07;12.04;73.40
67165;SHT31;54093;50.014;19.984;2024-03-02T14:24:28;12.01;73.17
67165;SHT31;54093;50.014;19.984;2024-03-02T14:33:50;11.99;73.36
67165;SHT31;54093;50.014;19.984;2024-03-02T14:43:11;11.96;73.28
67165;SHT31;54093;50.014;19.984;2024-03-02T14:52:33;11.90;73.56
67165;SHT31;54093;50.014;19.984;2024-03-02T15:01:54;11.91;73.57
67165;SHT31;54093;50.014;19.984;2024-03-02T15:11:15;11.91;73.60
67165;SHT31;54093;50.014;19.984;2024-03-02T15:20:36;11.87;73.18
67165;SHT31;54093;50.014;19.984;2024-03-02T15:29:57;11.85;74.24
67165;SHT31;54093;50.014;19.984;2024-03-02T15:39:18;11.76;74.54
67165;SHT31;54093;50.014;19.984;2024-03-02T15:48:39;11.69;75.29
67165;SHT31;54093;50.014;19.984;2024-03-02T15:58:01;11.54;75.87
67165;SHT31;54093;50.014;19.984;2024-03-02T16:07:26;11.43;75.67
67165;SHT31;54093;50.014;19.984;2024-03-02T16:16:47;11.35;76.34
67165;SHT31;54093;50.014;19.984;2024-03-02T16:26:08;11.14;76.56
67165;SHT31;54093;50.014;19.984;2024-03-02T16:35:29;10.99;76.93
67165;SHT31;54093;50.014;19.984;2024-03-02T16:44:51;10.74;77.67
67165;SHT31;54093;50.014;19.984;2024-03-02T16:54:15;10.60;78.03
67165;SHT31;54093;50.014;19.984;2024-03-02T17:03:36;10.48;77.81
67165;SHT31;54093;50.014;19.984;2024-03-02T17:12:57;10.36;79.04
67165;SHT31;54093;50.014;19.984;2024-03-02T17:22:20;10.18;79.07
67165;SHT31;54093;50.014;19.984;2024-03-02T17:31:41;10.02;79.36
67165;SHT31;54093;50.014;19.984;2024-03-02T17:41:02;9.88;80.14
67165;SHT31;54093;50.014;19.984;2024-03-02T17:50:25;9.80;80.74
67165;SHT31;54093;50.014;19.984;2024-03-02T17:59:46;9.67;80.08
67165;SHT31;54093;50.014;19.984;2024-03-02T18:09:07;9.56;80.32
67165;SHT31;54093;50.014;19.984;2024-03-02T18:18:28;9.54;80.24
67165;SHT31;54093;50.014;19.984;2024-03-02T18:27:49;9.46;81.01
67165;SHT31;54093;50.014;19.984;2024-03-02T18:37:10;9.42;80.19
67165;SHT31;54093;50.014;19.984;2024-03-02T18:46:33;9.33;80.54
67165;SHT31;54093;50.014;19.984;2024-03-02T18:55:54;9.32;80.86
67165;SHT31;54093;50.014;19.984;2024-03-02T19:05:15;9.33;80.88
67165;SHT31;54093;50.014;19.984;2024-03-02T19:14:36;9.26;80.96
67165;SHT31;54093;50.014;19.984;2024-03-02T19:23:58;9.09;81.56
67165;SHT31;54093;50.014;19.984;2024-03-02T19:33:19;9.04;81.87
67165;SHT31;54093;50.014;19.984;2024-03-02T19:42:40;9.01;81.58
67165;SHT31;54093;50.014;19.984;2024-03-02T19:52:01;8.92;81.56
67165;SHT31;54093;50.014;19.984;2024-03-02T20:01:22;8.78;81.34
67165;SHT31;54093;50.014;19.984;2024-03-02T20:10:43;8.57;82.67
67165;SHT31;54093;50.014;19.984;2024-03-02T20:20:06;8.56;82.79
67165;SHT31;54093;50.014;19.984;2024-03-02T20:29:29;8.63;82.46
67165;SHT31;54093;50.014;19.984;2024-03-02T20:38:50;8.65;82.08
67165;SHT31;54093;50.014;19.984;2024-03-02T20:48:11;8.65;82.41
67165;SHT31;54093;50.014;19.984;2024-03-02T20:57:32;8.58;82.12
67165;SHT31;54093;50.014;19.984;2024-03-02T21:06:54;8.54;82.27
67165;SHT31;54093;50.014;19.984;2024-03-02T21:16:16;8.54;82.42
67165;SHT31;54093;50.014;19.984;2024-03-02T21:25:37;8.56;82.18
67165;SHT31;54093;50.014;19.984;2024-03-02T21:34:58;8.53;81.87
67165;SHT31;54093;50.014;19.984;2024-03-02T21:44:19;8.43;81.82
67165;SHT31;54093;50.014;19.984;2024-03-02T21:53:40;8.39;82.30
67165;SHT31;54093;50.014;19.984;2024-03-02T22:03:02;8.28;82.08
67165;SHT31;54093;50.014;19.984;2024-03-02T22:12:24;8.13;83.21
67165;SHT31;54093;50.014;19.984;2024-03-02T22:21:45;8.10;83.37
67165;SHT31;54093;50.014;19.984;2024-03-02T22:31:07;8.10;82.39
67165;SHT31;54093;50.014;19.984;2024-03-02T22:40:28;8.02;82.42
67165;SHT31;54093;50.014;19.984;2024-03-02T22:49:49;7.96;81.39
67165;SHT31;54093;50.014;19.984;2024-03-02T22:59:14;7.77;82.31
67165;SHT31;54093;50.014;19.984;2024-03-02T23:08:35;7.72;82.10
67165;SHT31;54093;50.014;19.984;2024-03-02T23:17:57;7.57;82.59
67165;SHT31;54093;50.014;19.984;2024-03-02T23:27:18;7.58;82.35
67165;SHT31;54093;50.014;19.984;2024-03-02T23:36:39;7.61;83.33
67165;SHT31;54093;50.014;19.984;2024-03-02T23:46:00;7.46;83.04
67165;SHT31;54093;50.014;19.984;2024-03-02T23:55:21;7.57;83.59
